Time;durP1;ratioP1;P1;durP2;ratioP2;P2;SDS_P1;SDS_P2;PMS_P1;PMS_P2;Temp;Humidity;BMP_temperature;BMP_pressure;BME280_temperature;BME280_humidity;BME280_pressure;Samples;Min_cycle;Max_cycle;Signal;HPM_P1;HPM_P2
2022/06/28 00:02:21;;;;;;;14.37;13.07;;;;;;;;;;5031742;28;20651;-55
2022/06/28 00:04:47;;;;;;;15.60;14.17;;;;;;;;;;5031684;28;20211;-55
2022/06/28 00:07:14;;;;;;;14.53;13.20;;;;;;;;;;5031647;28;20203;-55
2022/06/28 00:09:41;;;;;;;14.00;12.80;;;;;;;;;;5031843;28;20200;-55
2022/06/28 00:12:08;;;;;;;14.00;12.83;;;;;;;;;;5031537;28;20255;-55
2022/06/28 00:17:18;;;;;;;15.80;14.20;;;;;;;;;;5031615;28;20235;-56
2022/06/28 00:19:44;;;;;;;14.83;13.47;;;;;;;;;;5031800;28;20196;-55
2022/06/28 00:22:10;;;;;;;14.30;13.10;;;;;;;;;;5031585;28;20655;-60
2022/06/28 00:24:36;;;;;;;13.90;12.80;;;;;;;;;;5031660;28;20193;-55
2022/06/28 00:27:04;;;;;;;13.90;12.70;;;;;;;;;;5030509;28;20217;-55
2022/06/28 00:29:30;;;;;;;14.30;13.00;;;;;;;;;;5030820;28;20576;-55
2022/06/28 00:31:56;;;;;;;14.30;13.10;;;;;;;;;;5031659;28;20231;-55
2022/06/28 00:34:22;;;;;;;14.17;12.87;;;;;;;;;;5031449;28;20193;-55
2022/06/28 00:36:48;;;;;;;13.07;11.80;;;;;;;;;;5031449;28;20208;-55
2022/06/28 00:39:15;;;;;;;13.83;12.53;;;;;;;;;;5031018;28;20570;-55
2022/06/28 00:41:42;;;;;;;13.90;12.53;;;;;;;;;;5031480;28;20258;-55
2022/06/28 00:44:10;;;;;;;13.60;12.40;;;;;;;;;;5031069;28;20192;-55
2022/06/28 00:46:36;;;;;;;14.07;12.40;;;;;;;;;;5030862;28;20208;-55
2022/06/28 00:49:02;;;;;;;13.90;11.23;;;;;;;;;;5033023;28;20197;-55
2022/06/28 00:51:28;;;;;;;13.40;12.03;;;;;;;;;;5034880;28;20667;-55
2022/06/28 00:53:55;;;;;;;12.50;11.40;;;;;;;;;;5034762;28;20615;-55
2022/06/28 00:56:21;;;;;;;12.90;11.70;;;;;;;;;;5034475;28;20624;-55
2022/06/28 00:58:47;;;;;;;13.77;10.73;;;;;;;;;;5034689;28;20612;-55
2022/06/28 01:01:14;;;;;;;12.80;11.50;;;;;;;;;;5034458;28;20251;-55
2022/06/28 01:03:41;;;;;;;12.90;11.27;;;;;;;;;;5034618;28;20723;-55
2022/06/28 01:06:07;;;;;;;13.87;12.50;;;;;;;;;;5034811;28;20203;-55
2022/06/28 01:08:33;;;;;;;14.37;12.97;;;;;;;;;;5034530;28;20216;-55
2022/06/28 01:11:18;;;;;;;13.10;11.70;;;;;;;;;;5034459;28;20197;-55
2022/06/28 02:40:49;;;;;;;18.43;16.33;;;;;;;;;;5032574;28;20215;-53
2022/06/28 02:43:15;;;;;;;18.17;16.47;;;;;;;;;;5032815;28;20193;-54
2022/06/28 02:45:42;;;;;;;20.33;15.50;;;;;;;;;;5032747;28;20199;-53
2022/06/28 02:48:08;;;;;;;18.10;16.40;;;;;;;;;;5032434;28;20197;-53
2022/06/28 02:50:35;;;;;;;18.70;16.43;;;;;;;;;;5032468;28;20200;-53
2022/06/28 02:53:01;;;;;;;17.60;15.90;;;;;;;;;;5032153;28;20225;-54
2022/06/28 02:55:28;;;;;;;19.00;16.90;;;;;;;;;;5032340;28;20545;-54
2022/06/28 02:57:54;;;;;;;18.90;17.10;;;;;;;;;;5032351;28;20559;-54
2022/06/28 03:00:20;;;;;;;18.07;16.43;;;;;;;;;;5032416;28;20205;-54
2022/06/28 03:02:47;;;;;;;18.87;16.97;;;;;;;;;;5032536;28;20197;-54
2022/06/28 03:05:14;;;;;;;18.70;16.87;;;;;;;;;;5032256;28;20201;-54
2022/06/28 03:07:42;;;;;;;17.67;15.97;;;;;;;;;;5032401;28;20220;-54
2022/06/28 03:10:08;;;;;;;19.57;17.67;;;;;;;;;;5032121;28;20213;-54
2022/06/28 03:12:35;;;;;;;18.53;16.83;;;;;;;;;;5031604;28;20228;-53
2022/06/28 03:15:01;;;;;;;20.03;18.23;;;;;;;;;;5032010;28;20281;-54
2022/06/28 03:17:27;;;;;;;20.90;18.90;;;;;;;;;;5032173;28;20280;-54
2022/06/28 03:19:53;;;;;;;18.50;16.87;;;;;;;;;;5032053;28;20276;-53
2022/06/28 03:22:19;;;;;;;19.17;17.37;;;;;;;;;;5032280;28;20359;-54
2022/06/28 03:24:47;;;;;;;19.43;17.63;;;;;;;;;;5031935;28;20201;-54
2022/06/28 03:27:13;;;;;;;20.73;18.53;;;;;;;;;;5031927;28;20304;-55
2022/06/28 03:29:39;;;;;;;20.53;18.50;;;;;;;;;;5031796;28;20197;-54
2022/06/28 03:32:06;;;;;;;19.30;17.47;;;;;;;;;;5031736;28;20225;-54
2022/06/28 03:34:32;;;;;;;20.03;18.03;;;;;;;;;;5031955;28;20274;-53
2022/06/28 03:36:58;;;;;;;19.23;17.50;;;;;;;;;;5031651;28;20263;-54
2022/06/28 03:39:24;;;;;;;17.13;15.63;;;;;;;;;;5031969;28;20228;-54
2022/06/28 03:41:51;;;;;;;19.00;16.97;;;;;;;;;;5031873;28;20212;-54
2022/06/28 03:44:17;;;;;;;17.77;15.97;;;;;;;;;;5031875;28;20216;-55
2022/06/28 03:46:43;;;;;;;17.23;15.60;;;;;;;;;;5031829;28;20204;-55
2022/06/28 03:49:09;;;;;;;16.47;14.93;;;;;;;;;;5031803;28;20599;-54
2022/06/28 03:51:35;;;;;;;16.67;14.90;;;;;;;;;;5031749;28;20201;-54
2022/06/28 03:54:01;;;;;;;15.87;14.30;;;;;;;;;;5031612;28;20664;-55
2022/06/28 03:56:27;;;;;;;15.87;14.50;;;;;;;;;;5031846;28;20193;-54
2022/06/28 03:58:54;;;;;;;22.83;16.27;;;;;;;;;;5031775;28;20200;-54
2022/06/28 04:01:20;;;;;;;15.50;13.97;;;;;;;;;;5031698;28;20213;-54
2022/06/28 04:03:46;;;;;;;17.43;15.70;;;;;;;;;;5031501;28;20204;-54
2022/06/28 04:06:12;;;;;;;14.23;12.83;;;;;;;;;;5031670;28;20184;-55
2022/06/28 04:08:38;;;;;;;14.73;13.40;;;;;;;;;;5031549;28;20266;-54
2022/06/28 04:11:14;;;;;;;16.33;14.47;;;;;;;;;;5031484;28;20212;-55
2022/06/28 04:13:40;;;;;;;15.73;14.30;;;;;;;;;;5031660;28;20232;-55
2022/06/28 04:16:07;;;;;;;15.30;13.70;;;;;;;;;;5031428;28;20255;-54
2022/06/28 04:18:34;;;;;;;16.20;14.47;;;;;;;;;;5031651;28;20197;-55
2022/06/28 04:21:00;;;;;;;15.80;14.30;;;;;;;;;;5031374;28;20205;-55
2022/06/28 04:23:26;;;;;;;16.83;15.33;;;;;;;;;;5034113;28;20219;-55
2022/06/28 04:25:52;;;;;;;16.57;14.00;;;;;;;;;;5035132;28;20220;-55
2022/06/28 04:28:18;;;;;;;17.63;16.03;;;;;;;;;;5035070;28;20663;-54
2022/06/28 04:30:44;;;;;;;15.93;14.43;;;;;;;;;;5035250;28;20193;-54
2022/06/28 04:33:11;;;;;;;16.27;13.60;;;;;;;;;;5034974;28;20232;-54
2022/06/28 04:35:37;;;;;;;15.13;13.47;;;;;;;;;;5034916;28;20236;-54
2022/06/28 04:38:03;;;;;;;14.97;13.47;;;;;;;;;;5034981;28;20197;-55
2022/06/28 04:40:29;;;;;;;14.37;12.87;;;;;;;;;;5035374;28;20686;-55
2022/06/28 04:42:55;;;;;;;14.90;13.60;;;;;;;;;;5035037;28;20550;-55
2022/06/28 04:45:21;;;;;;;14.47;13.17;;;;;;;;;;5034820;28;20733;-53
2022/06/28 04:47:47;;;;;;;15.40;13.87;;;;;;;;;;5034685;28;20207;-54
2022/06/28 04:50:15;;;;;;;14.70;13.20;;;;;;;;;;5034770;28;20545;-55
2022/06/28 04:52:41;;;;;;;14.20;12.83;;;;;;;;;;5034719;28;20241;-55
2022/06/28 04:55:07;;;;;;;16.93;15.20;;;;;;;;;;5034593;28;20220;-55
2022/06/28 04:57:33;;;;;;;15.03;13.63;;;;;;;;;;5034759;28;20250;-56
2022/06/28 04:59:59;;;;;;;13.90;12.57;;;;;;;;;;5034557;28;20189;-55
2022/06/28 05:02:25;;;;;;;14.90;13.10;;;;;;;;;;5034642;28;20207;-56
2022/06/28 05:04:51;;;;;;;16.10;13.57;;;;;;;;;;5034404;28;20201;-55
2022/06/28 05:07:19;;;;;;;15.67;14.10;;;;;;;;;;5034596;28;20668;-55
2022/06/28 05:09:45;;;;;;;13.33;12.03;;;;;;;;;;5034570;28;20227;-55
2022/06/28 05:12:11;;;;;;;14.80;13.43;;;;;;;;;;5034031;28;20677;-55
2022/06/28 05:14:37;;;;;;;16.50;14.57;;;;;;;;;;5034310;28;20623;-54
2022/06/28 05:17:03;;;;;;;15.23;13.83;;;;;;;;;;5034075;28;20255;-55
2022/06/28 05:19:30;;;;;;;15.43;13.83;;;;;;;;;;5033924;28;20201;-55
2022/06/28 05:21:56;;;;;;;15.13;13.73;;;;;;;;;;5034223;28;20621;-54
2022/06/28 05:24:24;;;;;;;14.47;12.93;;;;;;;;;;5034243;28;20204;-56
2022/06/28 05:26:50;;;;;;;18.50;14.47;;;;;;;;;;5033964;28;20220;-56
2022/06/28 05:29:16;;;;;;;14.30;13.00;;;;;;;;;;5033954;28;20189;-56
2022/06/28 05:31:42;;;;;;;13.97;12.67;;;;;;;;;;5033957;28;20197;-54
2022/06/28 05:34:08;;;;;;;12.80;11.50;;;;;;;;;;5033174;28;20244;-55
2022/06/28 05:36:37;;;;;;;14.43;12.93;;;;;;;;;;5033651;28;20237;-55
2022/06/28 05:39:03;;;;;;;13.20;12.10;;;;;;;;;;5033804;28;20201;-54
2022/06/28 05:41:31;;;;;;;14.57;12.80;;;;;;;;;;5033859;28;20200;-54
2022/06/28 05:43:57;;;;;;;14.87;13.33;;;;;;;;;;5033686;28;20733;-54
2022/06/28 05:46:23;;;;;;;13.30;11.77;;;;;;;;;;5033791;28;20224;-54
2022/06/28 05:48:49;;;;;;;13.20;11.80;;;;;;;;;;5033492;28;20702;-54
2022/06/28 05:51:15;;;;;;;13.80;12.40;;;;;;;;;;5033473;28;20208;-55
2022/06/28 05:53:41;;;;;;;11.60;10.50;;;;;;;;;;5033520;28;20311;-55
2022/06/28 05:56:07;;;;;;;14.33;12.10;;;;;;;;;;5033136;28;20472;-55
2022/06/28 05:58:35;;;;;;;13.13;11.73;;;;;;;;;;5033460;28;20670;-54
2022/06/28 06:01:01;;;;;;;12.20;11.00;;;;;;;;;;5033356;28;20209;-54
2022/06/28 06:03:27;;;;;;;12.30;11.10;;;;;;;;;;5033667;28;20573;-55
2022/06/28 06:05:53;;;;;;;15.07;10.83;;;;;;;;;;5033428;28;20197;-54
2022/06/28 06:08:20;;;;;;;11.20;10.10;;;;;;;;;;5033344;28;20224;-54
2022/06/28 06:10:46;;;;;;;11.20;10.10;;;;;;;;;;5033248;28;20229;-55
2022/06/28 06:13:12;;;;;;;11.77;10.60;;;;;;;;;;5032934;28;20256;-55
2022/06/28 06:15:39;;;;;;;11.07;9.87;;;;;;;;;;5033163;28;20198;-54
2022/06/28 06:18:05;;;;;;;13.43;10.93;;;;;;;;;;5032862;28;20715;-56
2022/06/28 06:20:31;;;;;;;12.10;10.80;;;;;;;;;;5032738;28;20201;-55
2022/06/28 06:22:57;;;;;;;11.57;9.43;;;;;;;;;;5032797;28;20563;-54
2022/06/28 06:25:24;;;;;;;14.70;11.27;;;;;;;;;;5032872;28;20691;-56
2022/06/28 06:27:50;;;;;;;11.07;9.17;;;;;;;;;;5032758;28;20615;-55
2022/06/28 06:30:16;;;;;;;13.90;9.33;;;;;;;;;;5032896;28;20198;-55
2022/06/28 06:32:43;;;;;;;9.53;8.53;;;;;;;;;;5032882;28;20237;-56
2022/06/28 06:35:09;;;;;;;10.53;8.17;;;;;;;;;;5032672;28;20206;-57
2022/06/28 06:37:36;;;;;;;10.43;8.80;;;;;;;;;;5032892;28;20285;-55
2022/06/28 06:40:02;;;;;;;10.03;8.03;;;;;;;;;;5032545;28;20198;-56
2022/06/28 06:42:28;;;;;;;9.43;7.23;;;;;;;;;;5032688;28;20202;-55
2022/06/28 06:44:54;;;;;;;9.63;7.07;;;;;;;;;;5032680;28;20199;-56
2022/06/28 06:47:20;;;;;;;11.07;6.33;;;;;;;;;;5032180;28;20207;-55
2022/06/28 06:49:48;;;;;;;9.87;7.40;;;;;;;;;;5032717;28;20727;-55
2022/06/28 06:52:14;;;;;;;9.43;6.60;;;;;;;;;;5032260;28;20235;-55
2022/06/28 06:54:40;;;;;;;8.37;5.90;;;;;;;;;;5032691;28;20205;-56
2022/06/28 06:57:06;;;;;;;8.73;5.70;;;;;;;;;;5032648;28;20208;-55
2022/06/28 06:59:32;;;;;;;9.93;6.00;;;;;;;;;;5032253;28;20627;-56
2022/06/28 07:01:58;;;;;;;6.90;5.23;;;;;;;;;;5032536;28;20212;-55
2022/06/28 07:04:24;;;;;;;9.47;6.03;;;;;;;;;;5032560;28;20674;-55
2022/06/28 07:06:51;;;;;;;11.27;5.87;;;;;;;;;;5037132;28;20214;-55
2022/06/28 07:09:17;;;;;;;9.17;5.27;;;;;;;;;;5050334;28;20203;-56
2022/06/28 07:11:43;;;;;;;6.80;5.33;;;;;;;;;;5043216;28;20291;-55
2022/06/28 07:14:09;;;;;;;7.57;5.80;;;;;;;;;;5030288;28;20208;-56
2022/06/28 07:16:35;;;;;;;6.60;5.10;;;;;;;;;;5032063;28;20204;-56
2022/06/28 07:19:01;;;;;;;6.83;5.30;;;;;;;;;;5031903;28;20596;-56
2022/06/28 07:21:27;;;;;;;6.50;5.20;;;;;;;;;;5032070;28;20204;-55
2022/06/28 07:23:55;;;;;;;5.97;4.33;;;;;;;;;;5032095;28;20200;-55
2022/06/28 07:26:21;;;;;;;7.40;4.53;;;;;;;;;;5032190;28;20270;-55
2022/06/28 07:28:47;;;;;;;8.00;4.60;;;;;;;;;;5032018;28;20798;-55
2022/06/28 07:31:15;;;;;;;5.23;4.07;;;;;;;;;;5031819;28;20625;-56
2022/06/28 07:33:41;;;;;;;5.43;4.10;;;;;;;;;;5031846;28;20235;-56
2022/06/28 07:36:07;;;;;;;7.67;4.40;;;;;;;;;;5031684;28;20298;-54
2022/06/28 07:38:33;;;;;;;6.73;4.13;;;;;;;;;;5031829;28;20258;-55
2022/06/28 07:41:00;;;;;;;5.07;3.93;;;;;;;;;;5032043;28;20224;-55
2022/06/28 07:43:26;;;;;;;6.40;4.40;;;;;;;;;;5032024;28;20197;-54
2022/06/28 07:45:53;;;;;;;4.67;3.40;;;;;;;;;;5031640;28;20739;-54
2022/06/28 07:48:19;;;;;;;6.77;3.70;;;;;;;;;;5031507;28;20220;-54
2022/06/28 07:53:30;;;;;;;4.87;3.80;;;;;;;;;;5031713;28;20228;-54
2022/06/28 07:55:56;;;;;;;7.70;3.63;;;;;;;;;;5031818;28;20208;-56
2022/06/28 07:58:23;;;;;;;7.83;3.67;;;;;;;;;;5034471;28;20201;-54
2022/06/28 08:00:49;;;;;;;5.23;3.27;;;;;;;;;;5035774;28;20196;-54
2022/06/28 08:03:15;;;;;;;9.27;3.00;;;;;;;;;;5035383;28;20193;-55
2022/06/28 08:05:41;;;;;;;6.63;3.63;;;;;;;;;;5035904;28;20206;-54
2022/06/28 08:08:08;;;;;;;6.00;3.30;;;;;;;;;;5035428;28;20280;-55
2022/06/28 08:10:34;;;;;;;5.57;3.23;;;;;;;;;;5035668;28;20196;-55
2022/06/28 08:13:00;;;;;;;5.93;3.50;;;;;;;;;;5035613;28;20312;-55
2022/06/28 08:15:27;;;;;;;4.47;3.00;;;;;;;;;;5035709;28;20640;-55
2022/06/28 08:17:54;;;;;;;7.07;3.73;;;;;;;;;;5035725;28;20240;-55
2022/06/28 08:20:20;;;;;;;5.47;3.47;;;;;;;;;;5035811;28;20208;-55
2022/06/28 08:22:46;;;;;;;5.37;2.93;;;;;;;;;;5035372;28;20652;-55
2022/06/28 08:25:13;;;;;;;6.23;3.13;;;;;;;;;;5035560;28;20197;-55
2022/06/28 08:27:39;;;;;;;4.77;3.13;;;;;;;;;;5035559;28;20200;-55
2022/06/28 08:30:05;;;;;;;4.97;2.80;;;;;;;;;;5035377;28;20577;-55
2022/06/28 08:32:33;;;;;;;7.33;3.10;;;;;;;;;;5035025;28;20629;-55
2022/06/28 08:34:59;;;;;;;4.43;2.47;;;;;;;;;;5035109;28;20236;-57
2022/06/28 08:37:25;;;;;;;5.33;2.50;;;;;;;;;;5035268;28;20659;-56
2022/06/28 08:39:51;;;;;;;5.20;2.70;;;;;;;;;;5035268;28;20209;-55
2022/06/28 08:42:25;;;;;;;7.27;2.80;;;;;;;;;;5035279;28;20247;-56
2022/06/28 08:44:51;;;;;;;3.43;2.47;;;;;;;;;;5035393;28;20202;-56
2022/06/28 08:47:42;;;;;;;5.43;2.40;;;;;;;;;;5034866;28;20392;-56
2022/06/28 08:50:10;;;;;;;7.67;2.60;;;;;;;;;;5034623;28;20668;-56
2022/06/28 08:52:36;;;;;;;4.57;2.10;;;;;;;;;;5034492;28;20247;-56
2022/06/28 08:55:04;;;;;;;4.70;1.87;;;;;;;;;;5034549;28;20214;-56
2022/06/28 08:57:32;;;;;;;4.60;2.20;;;;;;;;;;5034599;28;20198;-56
2022/06/28 08:59:58;;;;;;;5.77;2.00;;;;;;;;;;5034419;28;20673;-56
2022/06/28 09:02:24;;;;;;;3.47;2.17;;;;;;;;;;5034491;28;20221;-56
2022/06/28 09:04:53;;;;;;;4.50;2.10;;;;;;;;;;5034416;28;20206;-56
2022/06/28 09:07:19;;;;;;;4.57;2.07;;;;;;;;;;5034147;28;20261;-56
2022/06/28 09:09:46;;;;;;;4.23;1.90;;;;;;;;;;5033291;28;20533;-56
2022/06/28 09:12:12;;;;;;;4.93;2.43;;;;;;;;;;5034194;28;20274;-57
2022/06/28 09:14:38;;;;;;;4.33;2.20;;;;;;;;;;5034186;28;20207;-56
2022/06/28 09:17:17;;;;;;;5.73;2.00;;;;;;;;;;5033921;28;20426;-56
2022/06/28 09:19:43;;;;;;;3.83;1.90;;;;;;;;;;5034431;28;20208;-56
2022/06/28 09:22:27;;;;;;;2.77;2.00;;;;;;;;;;5034169;28;20223;-57
2022/06/28 09:24:53;;;;;;;5.20;1.80;;;;;;;;;;5034154;28;20204;-57
2022/06/28 09:27:27;;;;;;;3.13;1.70;;;;;;;;;;5033956;28;20330;-55
2022/06/28 09:29:53;;;;;;;2.90;1.53;;;;;;;;;;5033984;28;20197;-56
2022/06/28 09:32:26;;;;;;;4.50;2.13;;;;;;;;;;5033760;28;20227;-56
2022/06/28 09:34:54;;;;;;;3.20;1.80;;;;;;;;;;5033868;28;20200;-56
2022/06/28 09:37:31;;;;;;;3.07;1.70;;;;;;;;;;5033669;28;20259;-56
2022/06/28 09:39:57;;;;;;;4.17;1.70;;;;;;;;;;5033676;28;20257;-56
2022/06/28 09:42:23;;;;;;;3.87;2.00;;;;;;;;;;5033932;28;20196;-56
2022/06/28 09:44:54;;;;;;;4.37;1.90;;;;;;;;;;5033865;28;20204;-56
2022/06/28 09:47:20;;;;;;;4.97;2.10;;;;;;;;;;5034069;28;20207;-57
2022/06/28 09:49:47;;;;;;;3.87;2.00;;;;;;;;;;5032356;28;20192;-56
2022/06/28 09:52:13;;;;;;;6.27;2.00;;;;;;;;;;5033662;28;20229;-57
2022/06/28 09:54:42;;;;;;;3.93;1.80;;;;;;;;;;5033838;28;20197;-57
2022/06/28 09:57:12;;;;;;;5.30;1.90;;;;;;;;;;5033716;28;20216;-56
2022/06/28 09:59:38;;;;;;;3.13;1.60;;;;;;;;;;5033953;28;20291;-56
2022/06/28 10:02:05;;;;;;;3.90;1.90;;;;;;;;;;5033721;28;20655;-56
2022/06/28 10:04:31;;;;;;;4.57;2.40;;;;;;;;;;5033706;28;20338;-57
2022/06/28 10:06:58;;;;;;;4.43;2.10;;;;;;;;;;5033394;28;20211;-57
2022/06/28 10:09:24;;;;;;;4.57;1.90;;;;;;;;;;5033693;28;20215;-57
2022/06/28 10:17:29;;;;;;;2.83;1.77;;;;;;;;;;5033115;28;20199;-56
2022/06/28 10:19:57;;;;;;;6.37;1.77;;;;;;;;;;5033350;28;20207;-57
2022/06/28 10:22:23;;;;;;;3.17;1.97;;;;;;;;;;5033170;28;20192;-55
2022/06/28 10:24:55;;;;;;;2.87;2.00;;;;;;;;;;5032842;28;20199;-56
2022/06/28 10:27:23;;;;;;;2.77;1.63;;;;;;;;;;5033015;28;20221;-56
2022/06/28 10:30:10;;;;;;;2.87;1.97;;;;;;;;;;5033307;28;20257;-56
2022/06/28 10:32:39;;;;;;;4.03;1.83;;;;;;;;;;5015811;28;20743;-57
2022/06/28 10:35:05;;;;;;;2.90;1.60;;;;;;;;;;5032723;28;20206;-56
2022/06/28 10:37:32;;;;;;;3.23;2.13;;;;;;;;;;5032775;28;20201;-56
2022/06/28 10:40:13;;;;;;;3.33;1.80;;;;;;;;;;5032947;28;20204;-54
2022/06/28 10:42:49;;;;;;;3.77;1.97;;;;;;;;;;5032677;28;20254;-55
2022/06/28 10:45:15;;;;;;;4.13;1.83;;;;;;;;;;5032662;28;20204;-55
2022/06/28 10:48:03;;;;;;;4.27;2.00;;;;;;;;;;5032771;28;20611;-55
2022/06/28 10:50:29;;;;;;;4.33;2.17;;;;;;;;;;5032792;28;20205;-55
2022/06/28 10:53:00;;;;;;;4.10;1.80;;;;;;;;;;5032730;28;20222;-55
2022/06/28 10:55:27;;;;;;;3.50;1.70;;;;;;;;;;5032783;28;20197;-55
2022/06/28 10:58:13;;;;;;;4.67;2.10;;;;;;;;;;5032647;28;20288;-55
2022/06/28 11:00:53;;;;;;;4.37;2.03;;;;;;;;;;5029147;28;20204;-55
2022/06/28 11:03:19;;;;;;;5.27;1.87;;;;;;;;;;5032347;28;20706;-55
2022/06/28 11:05:47;;;;;;;4.27;1.60;;;;;;;;;;5032571;28;20210;-55
2022/06/28 11:08:18;;;;;;;3.10;1.70;;;;;;;;;;5030519;28;20639;-55
2022/06/28 11:10:59;;;;;;;2.50;1.70;;;;;;;;;;5030999;28;20198;-55
2022/06/28 11:13:25;;;;;;;3.90;1.77;;;;;;;;;;5032329;28;20226;-56
2022/06/28 11:15:51;;;;;;;4.03;1.83;;;;;;;;;;5032075;28;20203;-55
2022/06/28 11:18:20;;;;;;;3.17;1.63;;;;;;;;;;5031836;28;20205;-55
2022/06/28 11:20:46;;;;;;;3.30;1.60;;;;;;;;;;5032051;28;20592;-55
2022/06/28 11:23:21;;;;;;;2.53;1.60;;;;;;;;;;5032017;28;20572;-55
2022/06/28 11:28:32;;;;;;;2.20;1.50;;;;;;;;;;5031767;28;20199;-55
2022/06/28 11:30:58;;;;;;;4.27;1.73;;;;;;;;;;5031935;28;20243;-55
2022/06/28 11:33:32;;;;;;;2.47;1.80;;;;;;;;;;5031480;28;20264;-55
2022/06/28 11:36:00;;;;;;;3.40;1.40;;;;;;;;;;5031845;28;20250;-55
2022/06/28 11:38:26;;;;;;;1.53;1.40;;;;;;;;;;5031666;28;20194;-55
2022/06/28 11:40:52;;;;;;;2.87;1.40;;;;;;;;;;5031945;28;20211;-56
2022/06/28 11:43:20;;;;;;;4.73;1.40;;;;;;;;;;5031911;28;20681;-55
2022/06/28 11:45:47;;;;;;;2.83;1.47;;;;;;;;;;5031893;28;20285;-56
2022/06/28 11:48:14;;;;;;;1.63;1.20;;;;;;;;;;5031862;28;20200;-56
2022/06/28 11:50:42;;;;;;;1.63;1.17;;;;;;;;;;5031922;28;20205;-56
2022/06/28 11:53:08;;;;;;;3.00;1.20;;;;;;;;;;5031624;28;20591;-56
2022/06/28 11:55:39;;;;;;;1.90;1.50;;;;;;;;;;5031934;28;20204;-56
2022/06/28 11:58:13;;;;;;;2.13;1.20;;;;;;;;;;5031759;28;20203;-56
2022/06/28 12:00:39;;;;;;;1.97;1.47;;;;;;;;;;5031986;28;20667;-55
2022/06/28 12:03:06;;;;;;;2.00;1.47;;;;;;;;;;5032093;28;20234;-55
2022/06/28 12:05:32;;;;;;;1.50;1.40;;;;;;;;;;5031850;28;20637;-56
2022/06/28 12:08:00;;;;;;;2.60;1.37;;;;;;;;;;5031889;28;20190;-57
2022/06/28 12:10:28;;;;;;;2.97;1.47;;;;;;;;;;5031974;28;20212;-57
2022/06/28 12:12:54;;;;;;;1.60;1.47;;;;;;;;;;5031790;28;20246;-54
2022/06/28 12:15:27;;;;;;;2.03;1.40;;;;;;;;;;5031947;28;20216;-54
2022/06/28 12:17:56;;;;;;;2.03;1.30;;;;;;;;;;5031652;28;20900;-53
2022/06/28 12:20:22;;;;;;;2.33;1.27;;;;;;;;;;5031409;28;20698;-54
2022/06/28 12:22:55;;;;;;;2.80;1.87;;;;;;;;;;5031681;28;20194;-54
2022/06/28 12:25:23;;;;;;;2.70;1.43;;;;;;;;;;5030789;28;20204;-53
2022/06/28 12:27:51;;;;;;;1.77;1.30;;;;;;;;;;5031633;28;20666;-54
2022/06/28 12:30:17;;;;;;;1.73;1.27;;;;;;;;;;5031442;28;20197;-54
2022/06/28 12:32:43;;;;;;;2.70;1.37;;;;;;;;;;5031555;28;20222;-53
2022/06/28 12:35:10;;;;;;;4.53;1.07;;;;;;;;;;5030820;28;20750;-54
2022/06/28 12:37:36;;;;;;;4.07;1.30;;;;;;;;;;5031308;28;20653;-54
2022/06/28 12:40:03;;;;;;;2.07;1.10;;;;;;;;;;5031446;28;20199;-55
2022/06/28 12:42:31;;;;;;;1.63;0.90;;;;;;;;;;5031493;28;20199;-55
2022/06/28 12:45:01;;;;;;;6.20;1.50;;;;;;;;;;5032962;28;20289;-54
2022/06/28 12:47:27;;;;;;;3.00;1.27;;;;;;;;;;5034487;28;20218;-55
2022/06/28 12:49:53;;;;;;;1.53;1.20;;;;;;;;;;5034890;28;20247;-55
2022/06/28 12:52:19;;;;;;;3.53;1.20;;;;;;;;;;5034600;28;20232;-54
2022/06/28 12:54:45;;;;;;;3.23;1.03;;;;;;;;;;5034871;28;20277;-54
2022/06/28 12:57:11;;;;;;;1.33;1.10;;;;;;;;;;5034918;28;20692;-53
2022/06/28 12:59:39;;;;;;;2.20;1.27;;;;;;;;;;5034897;28;20203;-56
2022/06/28 13:02:05;;;;;;;2.40;1.30;;;;;;;;;;5034642;28;20204;-55
2022/06/28 13:04:31;;;;;;;2.17;1.23;;;;;;;;;;5034868;28;20201;-54
2022/06/28 13:06:57;;;;;;;2.23;1.23;;;;;;;;;;5034815;28;20560;-54
2022/06/28 13:09:23;;;;;;;3.87;1.40;;;;;;;;;;5034752;28;20234;-55
2022/06/28 13:11:49;;;;;;;2.53;1.30;;;;;;;;;;5034560;28;20675;-53
2022/06/28 13:14:15;;;;;;;1.63;1.20;;;;;;;;;;5034323;28;20231;-54
2022/06/28 13:16:42;;;;;;;2.67;1.30;;;;;;;;;;5034738;28;20267;-54
2022/06/28 13:19:08;;;;;;;3.37;1.13;;;;;;;;;;5034046;28;20579;-54
2022/06/28 13:21:34;;;;;;;4.47;1.57;;;;;;;;;;5034346;28;20667;-54
2022/06/28 13:24:00;;;;;;;2.10;1.17;;;;;;;;;;5034404;28;20190;-56
2022/06/28 13:26:26;;;;;;;1.80;0.90;;;;;;;;;;5034350;28;20222;-54
2022/06/28 13:28:52;;;;;;;3.23;1.20;;;;;;;;;;5034294;28;20229;-55
2022/06/28 13:31:18;;;;;;;2.20;1.17;;;;;;;;;;5033995;28;20282;-55
2022/06/28 13:33:51;;;;;;;1.37;0.80;;;;;;;;;;5034121;28;20253;-55
2022/06/28 13:36:17;;;;;;;4.13;1.40;;;;;;;;;;5033820;28;20242;-55
2022/06/28 13:38:44;;;;;;;1.50;1.10;;;;;;;;;;5034299;28;20211;-55
2022/06/28 13:41:10;;;;;;;2.37;1.30;;;;;;;;;;5033739;28;20205;-55
2022/06/28 13:43:36;;;;;;;1.73;1.10;;;;;;;;;;5034052;28;20217;-55
2022/06/28 13:46:03;;;;;;;1.07;0.97;;;;;;;;;;5033851;28;20209;-54
2022/06/28 13:48:30;;;;;;;1.57;1.00;;;;;;;;;;5033732;28;20223;-56
2022/06/28 13:50:58;;;;;;;2.33;1.40;;;;;;;;;;5033525;28;20207;-55
2022/06/28 13:53:24;;;;;;;1.23;0.90;;;;;;;;;;5033541;28;20229;-54
2022/06/28 13:55:51;;;;;;;1.40;1.00;;;;;;;;;;5032981;28;20734;-55
2022/06/28 13:58:17;;;;;;;2.83;1.03;;;;;;;;;;5033460;28;20849;-56
2022/06/28 14:00:43;;;;;;;1.93;1.00;;;;;;;;;;5033791;28;20197;-55
2022/06/28 14:03:10;;;;;;;1.33;1.00;;;;;;;;;;5031756;28;20621;-56
2022/06/28 14:05:36;;;;;;;1.67;1.20;;;;;;;;;;5033199;28;20191;-56
2022/06/28 14:08:04;;;;;;;1.40;0.93;;;;;;;;;;5033597;28;20209;-54
2022/06/28 14:10:30;;;;;;;1.37;1.10;;;;;;;;;;5033370;28;20198;-54
2022/06/28 14:12:57;;;;;;;2.10;0.80;;;;;;;;;;5033491;28;20221;-55
2022/06/28 14:15:23;;;;;;;1.10;0.93;;;;;;;;;;5033202;28;20283;-55
2022/06/28 14:17:50;;;;;;;3.67;1.10;;;;;;;;;;5033414;28;20197;-54
2022/06/28 14:20:16;;;;;;;3.10;1.17;;;;;;;;;;5033267;28;20207;-54
2022/06/28 14:22:42;;;;;;;1.37;0.93;;;;;;;;;;5033395;28;20284;-54
2022/06/28 14:25:09;;;;;;;2.10;0.97;;;;;;;;;;5033245;28;20216;-55
2022/06/28 14:27:35;;;;;;;1.80;0.90;;;;;;;;;;5032854;28;20775;-55
2022/06/28 14:30:01;;;;;;;2.10;1.00;;;;;;;;;;5033039;28;20204;-55
2022/06/28 14:32:27;;;;;;;2.60;1.00;;;;;;;;;;5032714;28;20242;-53
2022/06/28 14:34:53;;;;;;;1.77;0.80;;;;;;;;;;5033067;28;20193;-54
2022/06/28 14:37:19;;;;;;;1.93;1.10;;;;;;;;;;5032781;28;20790;-54
2022/06/28 14:39:45;;;;;;;1.10;1.00;;;;;;;;;;5033055;28;20219;-54
2022/06/28 14:42:13;;;;;;;1.03;0.83;;;;;;;;;;5032663;28;20270;-55
2022/06/28 14:44:39;;;;;;;1.50;1.07;;;;;;;;;;5032967;28;20283;-55
2022/06/28 14:47:05;;;;;;;1.03;0.90;;;;;;;;;;5033465;28;20235;-54
2022/06/28 14:49:31;;;;;;;4.23;1.10;;;;;;;;;;5032858;28;20261;-55
2022/06/28 14:51:58;;;;;;;5.17;1.20;;;;;;;;;;5032786;28;20259;-54
2022/06/28 14:54:23;;;;;;;4.10;1.20;;;;;;;;;;5032718;28;20231;-55
2022/06/28 14:56:50;;;;;;;1.77;1.20;;;;;;;;;;5032620;28;20200;-54
2022/06/28 14:59:17;;;;;;;1.93;1.20;;;;;;;;;;5032377;28;20666;-54
2022/06/28 15:01:43;;;;;;;1.20;0.90;;;;;;;;;;5032702;28;20228;-54
2022/06/28 15:04:09;;;;;;;2.57;1.30;;;;;;;;;;5032458;28;20585;-54
2022/06/28 15:06:35;;;;;;;1.20;0.70;;;;;;;;;;5031728;28;20294;-54
2022/06/28 15:09:01;;;;;;;1.83;0.97;;;;;;;;;;5032178;28;20200;-53
2022/06/28 15:11:27;;;;;;;1.37;0.80;;;;;;;;;;5032323;28;20208;-54
2022/06/28 15:13:53;;;;;;;1.97;1.00;;;;;;;;;;5032244;28;20259;-54
2022/06/28 15:16:21;;;;;;;0.90;0.90;;;;;;;;;;5032307;28;20219;-55
2022/06/28 15:18:47;;;;;;;2.97;1.03;;;;;;;;;;5032248;28;20206;-54
2022/06/28 15:32:24;;;;;;;2.10;1.17;;;;;;;;;;5031551;28;20569;-55
2022/06/28 15:34:50;;;;;;;2.27;1.13;;;;;;;;;;5031989;28;20201;-55
2022/06/28 15:37:16;;;;;;;1.80;0.90;;;;;;;;;;5031825;28;20252;-55
2022/06/28 15:39:43;;;;;;;1.73;1.00;;;;;;;;;;5031901;28;20200;-56
2022/06/28 15:42:09;;;;;;;2.60;1.40;;;;;;;;;;5031574;28;20197;-54
2022/06/28 15:44:36;;;;;;;2.03;0.90;;;;;;;;;;5031747;28;20191;-54
2022/06/28 15:47:02;;;;;;;1.03;0.87;;;;;;;;;;5031893;28;20197;-54
2022/06/28 15:49:29;;;;;;;1.27;1.00;;;;;;;;;;5031982;28;20210;-55
2022/06/28 15:51:55;;;;;;;1.80;1.03;;;;;;;;;;5032033;28;20203;-55
2022/06/28 15:54:21;;;;;;;3.83;0.87;;;;;;;;;;5031750;28;20231;-55
2022/06/28 15:56:47;;;;;;;1.70;1.10;;;;;;;;;;5031859;28;20211;-55
2022/06/28 15:59:13;;;;;;;1.40;1.03;;;;;;;;;;5031480;28;20202;-54
2022/06/28 16:01:39;;;;;;;1.07;0.83;;;;;;;;;;5031576;28;20215;-52
2022/06/28 16:04:05;;;;;;;2.33;1.10;;;;;;;;;;5031191;28;20239;-53
2022/06/28 16:06:33;;;;;;;1.30;0.90;;;;;;;;;;5031541;28;20254;-53
2022/06/28 16:08:59;;;;;;;3.10;0.90;;;;;;;;;;5031732;28;20207;-55
2022/06/28 16:11:25;;;;;;;2.20;1.10;;;;;;;;;;5031373;28;20579;-55
2022/06/28 16:13:51;;;;;;;1.10;1.00;;;;;;;;;;5031768;28;20223;-56
2022/06/28 16:16:17;;;;;;;1.63;0.97;;;;;;;;;;5031563;28;20282;-55
2022/06/28 16:18:43;;;;;;;3.53;0.90;;;;;;;;;;5031335;28;20204;-54
2022/06/28 16:21:09;;;;;;;2.53;0.93;;;;;;;;;;5035405;28;20547;-55
2022/06/28 16:23:36;;;;;;;2.83;1.20;;;;;;;;;;5035273;28;20187;-55
2022/06/28 16:26:02;;;;;;;1.70;0.80;;;;;;;;;;5035092;28;20237;-55